createdAt,value
2022-12-26T00:03:31.214Z,76.83
2022-12-26T00:08:31.121Z,77.03
2022-12-26T00:13:38.830Z,77.95
2022-12-26T00:18:31.950Z,77.51
2022-12-26T00:23:30.919Z,77.71
2022-12-26T00:28:30.958Z,78.16
2022-12-26T00:33:30.708Z,78.05
2022-12-26T00:38:30.743Z,78.87
2022-12-26T00:43:30.614Z,78.32
2022-12-26T00:48:30.541Z,78.66
2022-12-26T00:53:33.598Z,77.20
2022-12-26T00:58:30.353Z,78.80
2022-12-26T01:03:30.407Z,77.10
2022-12-26T01:08:30.268Z,76.39
2022-12-26T01:13:30.123Z,76.90
2022-12-26T01:18:30.154Z,76.49
2022-12-26T01:24:47.524Z,75.54
2022-12-26T01:29:54.873Z,74.89
2022-12-26T01:34:47.444Z,74.58
2022-12-26T01:39:47.777Z,75.23
2022-12-26T01:44:47.447Z,75.98
2022-12-26T01:49:47.304Z,75.02
2022-12-26T01:54:47.194Z,75.98
2022-12-26T01:59:47.225Z,75.13
2022-12-26T02:04:47.010Z,75.88
2022-12-26T02:09:46.995Z,75.64
2022-12-26T02:14:50.000Z,74.62
2022-12-26T02:19:46.949Z,76.22
2022-12-26T02:24:46.844Z,74.52
2022-12-26T02:29:46.683Z,75.43
2022-12-26T02:34:46.842Z,73.23
2022-12-26T02:39:46.991Z,74.18
2022-12-26T02:44:47.551Z,73.67
2022-12-26T02:49:46.411Z,73.16
2022-12-26T02:54:46.486Z,73.67
2022-12-26T02:59:53.704Z,73.43
2022-12-26T03:04:47.317Z,74.93
2022-12-26T03:09:46.392Z,73.06
2022-12-26T03:14:49.939Z,73.13
2022-12-26T03:19:46.037Z,73.47
2022-12-26T03:24:46.099Z,73.23
2022-12-26T03:29:45.918Z,72.82
2022-12-26T03:34:46.138Z,73.33
2022-12-26T03:39:45.931Z,73.33
2022-12-26T03:44:50.154Z,72.25
2022-12-26T03:49:48.156Z,71.64
2022-12-26T03:54:45.790Z,71.94
2022-12-26T03:59:45.681Z,72.17
2022-12-26T04:04:45.684Z,72.38
2022-12-26T04:09:45.563Z,71.87
2022-12-26T04:14:57.191Z,70.32
2022-12-26T04:19:45.319Z,72.55
2022-12-26T04:24:45.419Z,71.53
2022-12-26T04:29:45.150Z,70.48
2022-12-26T04:34:45.202Z,71.94
2022-12-26T04:39:45.041Z,70.35
2022-12-26T04:44:45.163Z,71.53
2022-12-26T04:49:49.539Z,71.64
2022-12-26T04:54:45.981Z,70.15
2022-12-26T04:59:44.832Z,70.79
2022-12-26T05:04:44.742Z,70.89
2022-12-26T05:09:44.629Z,71.23
2022-12-26T05:14:47.626Z,71.77
2022-12-26T05:19:44.563Z,72.82
2022-12-26T05:24:44.487Z,70.92
2022-12-26T05:29:44.507Z,71.64
2022-12-26T05:40:18.677Z,71.84
2022-12-26T05:45:18.540Z,72.52
2022-12-26T05:50:18.518Z,71.77
2022-12-26T05:55:18.394Z,72.52
2022-12-26T06:00:20.053Z,73.16
2022-12-26T06:05:19.372Z,72.96
2022-12-26T06:10:18.314Z,73.16
2022-12-26T06:15:18.305Z,73.71
2022-12-26T06:20:18.243Z,73.02
2022-12-26T06:25:18.151Z,73.77
2022-12-26T06:30:21.101Z,73.71
2022-12-26T06:35:18.127Z,74.21
2022-12-26T06:40:17.962Z,72.65
2022-12-26T06:45:17.852Z,74.65
2022-12-26T06:50:17.737Z,73.74
2022-12-26T06:55:17.726Z,73.26
2022-12-26T07:00:26.838Z,72.92
2022-12-26T07:05:17.777Z,72.75
2022-12-26T07:10:17.745Z,72.11
2022-12-26T07:15:17.544Z,74.01
2022-12-26T07:20:17.484Z,73.60
2022-12-26T07:25:17.289Z,73.50
2022-12-26T07:30:20.252Z,73.26
2022-12-26T07:35:17.161Z,74.25
2022-12-26T07:40:17.250Z,72.52
2022-12-26T07:45:16.974Z,74.08
2022-12-26T07:50:17.016Z,72.86
2022-12-26T07:55:16.825Z,73.67
2022-12-26T08:00:16.787Z,73.47
2022-12-26T08:05:16.739Z,73.36
2022-12-26T08:10:16.707Z,72.82
2022-12-26T08:15:16.644Z,72.52
2022-12-26T08:20:16.563Z,70.59
2022-12-26T08:25:19.987Z,70.68
2022-12-26T08:30:26.476Z,70.99
2022-12-26T08:35:17.743Z,70.68
2022-12-26T08:40:26.718Z,70.99
2022-12-26T08:45:17.172Z,71.20
2022-12-26T08:50:16.099Z,71.40
2022-12-26T08:55:16.041Z,71.30
2022-12-26T09:00:15.972Z,70.04
2022-12-26T09:05:15.922Z,69.81
2022-12-26T09:10:15.866Z,69.00
2022-12-26T09:15:17.430Z,68.12
2022-12-26T09:20:16.288Z,68.63
2022-12-26T09:25:15.639Z,69.17
2022-12-26T09:30:18.599Z,67.92
2022-12-26T09:35:15.512Z,69.81
2022-12-26T09:40:15.443Z,68.02
2022-12-26T09:45:15.334Z,67.79
2022-12-26T09:50:23.130Z,66.94
2022-12-26T09:55:22.701Z,67.76
2022-12-26T10:00:15.155Z,68.40
2022-12-26T10:05:15.124Z,67.89
2022-12-26T10:10:15.091Z,67.25
2022-12-26T10:15:14.945Z,69.03
2022-12-26T10:20:16.574Z,69.44
2022-12-26T10:25:14.801Z,69.03
2022-12-26T10:30:17.906Z,68.73
2022-12-26T10:35:14.910Z,68.52
2022-12-26T10:40:14.857Z,69.34
2022-12-26T10:45:14.556Z,67.48
2022-12-26T10:50:14.571Z,68.12
2022-12-26T10:55:28.296Z,68.23
2022-12-26T11:00:15.519Z,71.30
2022-12-26T11:10:15.234Z,76.86
2022-12-26T11:15:14.252Z,77.71
2022-12-26T11:20:14.240Z,76.90
2022-12-26T11:25:14.027Z,77.51
2022-12-26T11:30:17.903Z,75.78
2022-12-26T11:35:13.959Z,79.21
2022-12-26T11:40:13.883Z,78.60
2022-12-26T11:45:13.949Z,81.07
2022-12-26T11:50:13.792Z,80.56
2022-12-26T11:55:13.664Z,82.13
2022-12-26T12:00:13.622Z,81.58
2022-12-26T12:05:13.544Z,81.07
2022-12-26T12:10:13.539Z,81.15
2022-12-26T12:15:13.370Z,81.72
2022-12-26T12:20:13.381Z,80.80
2022-12-26T12:25:21.221Z,80.43
2022-12-26T12:30:16.191Z,79.68
2022-12-26T12:36:30.875Z,80.26
2022-12-26T12:41:30.614Z,80.16
2022-12-26T12:46:38.359Z,78.83
2022-12-26T12:51:37.613Z,77.03
2022-12-26T12:56:30.465Z,77.67
2022-12-26T13:01:30.434Z,77.81
2022-12-26T13:06:30.436Z,78.93
2022-12-26T13:11:30.216Z,78.39
2022-12-26T13:16:30.361Z,78.63
2022-12-26T13:21:30.112Z,79.89
2022-12-26T13:26:33.110Z,80.64
2022-12-26T13:31:30.099Z,81.25
2022-12-26T13:36:30.048Z,81.39
2022-12-26T13:41:29.859Z,80.43
2022-12-26T13:46:30.053Z,81.09
2022-12-26T13:51:29.758Z,82.00
2022-12-26T13:56:29.722Z,81.25
2022-12-26T14:01:29.735Z,80.88
2022-12-26T14:06:29.556Z,81.35
2022-12-26T14:11:39.545Z,79.41
2022-12-26T14:17:50.300Z,81.18
2022-12-26T14:22:50.054Z,82.24
2022-12-26T14:27:50.000Z,81.43
2022-12-26T14:32:49.905Z,80.91
2022-12-26T14:37:49.868Z,79.86
2022-12-26T14:42:49.761Z,81.29
2022-12-26T14:47:49.806Z,80.20
2022-12-26T14:52:57.641Z,79.80
2022-12-26T14:59:15.079Z,79.18
2022-12-26T15:04:14.974Z,80.85
2022-12-26T15:09:15.040Z,81.87
2022-12-26T15:14:14.909Z,82.93
2022-12-26T15:19:14.820Z,82.63
2022-12-26T15:25:32.312Z,82.12
2022-12-26T15:30:32.239Z,83.28
2022-12-26T15:35:32.251Z,83.07
2022-12-26T15:40:32.135Z,82.77
2022-12-26T15:45:32.060Z,82.97
2022-12-26T15:50:32.004Z,83.52
2022-12-26T15:55:32.120Z,83.46
2022-12-26T16:00:31.848Z,82.29
2022-12-26T16:05:31.806Z,82.05
2022-12-26T16:10:31.716Z,81.99
2022-12-26T16:15:34.678Z,82.43
2022-12-26T16:20:31.599Z,83.50
2022-12-26T16:25:31.612Z,81.27
2022-12-26T16:30:31.445Z,81.45
2022-12-26T16:35:31.419Z,81.76
2022-12-26T16:40:31.294Z,80.80
2022-12-26T16:45:31.272Z,81.79
2022-12-26T16:50:31.246Z,83.33
2022-12-26T16:55:31.220Z,82.76
2022-12-26T17:00:31.065Z,81.70
2022-12-26T17:05:31.105Z,81.49
2022-12-26T17:10:30.972Z,81.79
2022-12-26T17:15:33.857Z,82.65
2022-12-26T17:20:39.820Z,82.51
2022-12-26T17:26:48.715Z,81.45
2022-12-26T17:31:48.415Z,81.79
2022-12-26T17:44:24.153Z,81.21
2022-12-26T17:51:24.815Z,79.39
2022-12-26T18:02:38.719Z,77.80
2022-12-26T18:07:37.404Z,75.95
2022-12-26T18:12:49.253Z,75.37
2022-12-26T18:19:11.345Z,73.47
2022-12-26T18:24:11.031Z,74.56
2022-12-26T18:29:10.999Z,76.43
2022-12-26T18:34:10.940Z,76.26
2022-12-26T18:40:41.938Z,75.24
2022-12-26T18:45:49.843Z,76.43
2022-12-26T18:50:39.350Z,77.08
2022-12-26T18:55:39.529Z,78.52
2022-12-26T19:00:39.152Z,80.08
2022-12-26T19:05:39.169Z,81.15
2022-12-26T19:10:39.057Z,81.65
2022-12-26T19:15:39.223Z,82.78
2022-12-26T19:20:43.901Z,81.86
2022-12-26T19:25:39.883Z,80.29
2022-12-26T19:30:41.993Z,80.69
2022-12-26T19:35:38.729Z,81.84
2022-12-26T19:40:38.741Z,80.91
2022-12-26T19:45:38.621Z,81.18
2022-12-26T19:50:38.608Z,79.16
2022-12-26T19:55:38.515Z,82.04
2022-12-26T20:00:38.355Z,80.83
2022-12-26T20:08:39.475Z,79.96
2022-12-26T20:13:39.394Z,80.91
2022-12-26T20:18:39.293Z,81.84
2022-12-26T20:23:39.184Z,80.71
2022-12-26T20:28:39.049Z,83.00
2022-12-26T20:33:38.945Z,83.51
2022-12-26T20:38:38.964Z,84.08
2022-12-26T20:43:38.922Z,84.53
2022-12-26T20:48:38.827Z,84.53
2022-12-26T20:53:38.659Z,83.26
2022-12-26T20:58:41.815Z,83.63
2022-12-26T21:04:57.033Z,84.01
2022-12-26T21:09:56.889Z,83.58
2022-12-26T21:14:57.662Z,82.99
2022-12-26T21:19:56.893Z,82.48
2022-12-26T21:24:56.695Z,84.03
2022-12-26T21:29:56.603Z,84.88
2022-12-26T21:34:56.481Z,82.55
2022-12-26T21:39:56.588Z,83.17
2022-12-26T21:44:56.506Z,82.76
2022-12-26T21:49:56.344Z,82.20
2022-12-26T21:54:59.323Z,82.41
2022-12-26T21:59:56.266Z,83.72
2022-12-26T22:04:56.320Z,81.69
2022-12-26T22:09:56.110Z,83.03
2022-12-26T22:14:55.983Z,82.71
2022-12-26T22:21:52.478Z,81.96
2022-12-26T22:26:59.443Z,82.23
2022-12-26T22:31:50.978Z,82.92
2022-12-26T22:36:50.998Z,81.60
2022-12-26T22:41:50.937Z,77.25
2022-12-26T22:49:23.131Z,73.61
2022-12-26T22:56:49.255Z,73.47
2022-12-26T23:01:49.185Z,71.58
2022-12-26T23:06:49.131Z,71.10
2022-12-26T23:11:49.050Z,70.48
2022-12-26T23:16:49.025Z,70.58
2022-12-26T23:21:48.871Z,72.85
2022-12-26T23:26:49.144Z,72.30
2022-12-26T23:31:48.748Z,72.27
2022-12-26T23:36:48.749Z,71.44
2022-12-26T23:41:48.796Z,71.85
2022-12-26T23:46:51.795Z,71.75
2022-12-26T23:51:57.023Z,71.82
2022-12-26T23:56:48.454Z,72.33
